createdAt,value
2023-04-24T00:00:01.159Z,5.60
2023-04-24T00:02:29.890Z,10.40
2023-04-24T00:04:58.255Z,8.40
2023-04-24T00:07:29.815Z,7.65
2023-04-24T00:09:58.118Z,6.18
2023-04-24T00:12:26.596Z,6.70
2023-04-24T00:14:54.611Z,6.88
2023-04-24T00:17:24.972Z,8.25
2023-04-24T00:19:59.504Z,9.65
2023-04-24T00:22:31.421Z,12.15
2023-04-24T00:24:59.467Z,9.18
2023-04-24T00:27:27.984Z,7.95
2023-04-24T00:29:55.922Z,7.30
2023-04-24T00:32:26.536Z,7.95
2023-04-24T00:34:54.645Z,8.63
2023-04-24T00:37:23.102Z,8.68
2023-04-24T00:39:51.102Z,10.00
2023-04-24T00:42:19.363Z,11.75
2023-04-24T00:44:49.737Z,10.43
2023-04-24T00:47:18.487Z,8.73
2023-04-24T00:49:46.708Z,8.75
2023-04-24T00:52:18.717Z,8.45
2023-04-24T00:54:46.872Z,7.43
2023-04-24T00:57:16.385Z,7.50
2023-04-24T00:59:45.507Z,7.85
2023-04-24T01:02:14.354Z,8.10
2023-04-24T01:04:42.844Z,8.70
2023-04-24T01:07:12.517Z,8.68
2023-04-24T01:09:45.079Z,8.70
2023-04-24T01:12:13.706Z,8.55
2023-04-24T01:14:41.851Z,8.60
2023-04-24T01:17:10.486Z,9.00
2023-04-24T01:19:39.001Z,8.23
2023-04-24T01:22:15.768Z,8.70
2023-04-24T01:24:44.550Z,8.77
2023-04-24T01:27:14.493Z,8.52
2023-04-24T01:29:42.929Z,7.32
2023-04-24T01:32:13.653Z,8.02
2023-04-24T01:34:42.137Z,7.95
2023-04-24T01:37:10.563Z,7.30
2023-04-24T01:39:39.143Z,8.00
2023-04-24T01:42:08.188Z,7.72
2023-04-24T01:44:37.655Z,7.95
2023-04-24T01:47:07.210Z,7.78
2023-04-24T01:49:36.629Z,8.43
2023-04-24T01:52:06.133Z,8.48
2023-04-24T01:54:34.269Z,8.75
2023-04-24T01:57:03.809Z,8.85
2023-04-24T01:59:34.338Z,7.95
2023-04-24T02:02:02.613Z,9.23
2023-04-24T02:04:31.648Z,12.02
2023-04-24T02:06:59.995Z,19.42
2023-04-24T02:09:28.048Z,12.02
2023-04-24T02:11:57.503Z,9.40
2023-04-24T02:14:28.183Z,9.93
2023-04-24T02:16:58.852Z,13.23
2023-04-24T02:19:27.421Z,15.00
2023-04-24T02:21:55.659Z,14.90
2023-04-24T02:24:23.713Z,11.32
2023-04-24T02:26:53.754Z,9.50
2023-04-24T02:29:22.166Z,9.52
2023-04-24T02:31:52.028Z,11.10
2023-04-24T02:34:20.100Z,11.05
2023-04-24T02:36:48.387Z,10.00
2023-04-24T02:39:19.894Z,10.50
2023-04-24T02:41:48.452Z,11.27
2023-04-24T02:44:18.441Z,9.88
2023-04-24T02:46:46.954Z,11.73
2023-04-24T02:49:14.888Z,9.63
2023-04-24T02:51:43.142Z,8.95
2023-04-24T02:54:11.134Z,10.57
2023-04-24T02:56:39.573Z,10.20
2023-04-24T02:59:08.852Z,9.82
2023-04-24T03:01:37.579Z,9.27
2023-04-24T03:04:05.941Z,9.50
2023-04-24T03:06:36.528Z,9.18
2023-04-24T03:09:04.730Z,9.52
2023-04-24T03:11:33.905Z,10.48
2023-04-24T03:14:02.253Z,11.75
2023-04-24T03:16:30.682Z,11.25
2023-04-24T03:18:58.681Z,11.27
2023-04-24T03:21:30.606Z,12.30
2023-04-24T03:24:00.126Z,10.07
2023-04-24T03:26:28.524Z,9.48
2023-04-24T03:29:09.404Z,11.15
2023-04-24T03:31:37.805Z,16.02
2023-04-24T03:34:05.999Z,16.00
2023-04-24T03:36:34.743Z,13.32
2023-04-24T03:39:02.655Z,12.25
2023-04-24T03:41:34.619Z,10.98
2023-04-24T03:44:11.706Z,11.30
2023-04-24T03:46:40.123Z,12.68
2023-04-24T03:49:08.943Z,15.60
2023-04-24T03:51:41.129Z,13.63
2023-04-24T03:54:28.994Z,13.68
2023-04-24T03:56:57.226Z,19.05
2023-04-24T03:59:27.815Z,111.22
2023-04-24T04:02:11.610Z,119.90
2023-04-24T04:04:39.966Z,123.30
2023-04-24T04:07:09.098Z,33.45
2023-04-24T04:09:37.278Z,11.82
2023-04-24T04:12:05.516Z,11.30
2023-04-24T04:14:35.010Z,11.55
2023-04-24T04:17:04.245Z,11.30
2023-04-24T04:19:32.498Z,11.00
2023-04-24T04:22:00.971Z,14.07
2023-04-24T04:24:44.149Z,11.55
2023-04-24T04:27:13.539Z,10.02
2023-04-24T04:29:51.188Z,8.50
2023-04-24T04:32:19.847Z,8.07
2023-04-24T04:34:47.878Z,9.82
2023-04-24T04:37:16.549Z,9.20
2023-04-24T04:39:54.645Z,10.55
2023-04-24T04:42:27.007Z,9.50
2023-04-24T04:44:55.312Z,9.32
2023-04-24T04:47:33.638Z,8.25
2023-04-24T04:50:04.911Z,11.43
2023-04-24T04:52:34.765Z,7.60
2023-04-24T04:55:20.927Z,7.50
2023-04-24T04:58:11.879Z,6.85
2023-04-24T05:00:40.190Z,6.57
2023-04-24T05:03:21.290Z,6.55
2023-04-24T05:05:55.029Z,7.10
2023-04-24T05:08:27.433Z,7.95
2023-04-24T05:10:56.606Z,8.85
2023-04-24T05:13:38.478Z,7.28
2023-04-24T05:16:13.117Z,7.50
2023-04-24T05:18:42.423Z,9.40
2023-04-24T05:21:13.001Z,8.18
2023-04-24T05:23:43.507Z,8.30
2023-04-24T05:26:12.804Z,9.27
2023-04-24T05:28:42.011Z,12.23
2023-04-24T05:31:13.758Z,16.50
2023-04-24T05:33:42.838Z,15.38
2023-04-24T05:36:11.263Z,73.78
2023-04-24T05:38:39.931Z,15.80
2023-04-24T05:41:07.883Z,18.02
2023-04-24T05:43:36.392Z,8.05
2023-04-24T05:46:04.488Z,8.43
2023-04-24T05:48:32.827Z,8.48
2023-04-24T05:51:03.165Z,9.75
2023-04-24T05:53:31.834Z,9.27
2023-04-24T05:56:00.222Z,7.55
2023-04-24T05:58:29.065Z,23.27
2023-04-24T06:00:57.085Z,52.97
2023-04-24T06:03:26.170Z,9.20
2023-04-24T06:05:55.010Z,87.18
2023-04-24T06:08:24.656Z,7.28
2023-04-24T06:10:53.497Z,6.72
2023-04-24T06:13:23.471Z,6.88
2023-04-24T06:16:11.565Z,11.90
2023-04-24T06:18:43.092Z,14.05
2023-04-24T06:21:11.103Z,5.03
2023-04-24T06:23:39.664Z,4.25
2023-04-24T06:26:09.563Z,4.47
2023-04-24T06:28:38.227Z,4.25
2023-04-24T06:31:06.090Z,4.35
2023-04-24T06:33:34.955Z,3.95
2023-04-24T06:36:05.069Z,3.92
2023-04-24T06:38:33.744Z,10.00
2023-04-24T06:41:01.940Z,6.75
2023-04-24T06:43:30.361Z,7.13
2023-04-24T06:45:59.304Z,3.95
2023-04-24T06:48:27.821Z,5.20
2023-04-24T06:50:56.074Z,2.60
2023-04-24T06:53:24.501Z,6.13
2023-04-24T06:55:52.740Z,9.57
2023-04-24T06:58:21.272Z,2.65
2023-04-24T07:00:49.469Z,23.95
2023-04-24T07:03:18.126Z,7.40
2023-04-24T07:05:47.343Z,6.30
2023-04-24T07:08:18.099Z,7.20
2023-04-24T07:10:47.075Z,15.15
2023-04-24T07:13:16.006Z,10.50
2023-04-24T07:15:44.492Z,7.38
2023-04-24T07:18:13.200Z,21.40
2023-04-24T07:20:41.921Z,13.18
2023-04-24T07:23:10.418Z,13.25
2023-04-24T07:25:39.403Z,6.43
2023-04-24T07:28:07.971Z,17.85
2023-04-24T07:30:36.285Z,8.50
2023-04-24T07:33:04.765Z,11.57
2023-04-24T07:35:33.086Z,8.52
2023-04-24T07:38:01.642Z,15.85
2023-04-24T07:40:29.934Z,12.73
2023-04-24T07:42:58.571Z,13.15
2023-04-24T07:45:29.035Z,14.13
2023-04-24T07:47:57.556Z,6.88
2023-04-24T07:50:25.771Z,18.80
2023-04-24T07:52:54.184Z,15.82
2023-04-24T07:55:24.659Z,6.88
2023-04-24T07:57:53.413Z,6.32
2023-04-24T08:00:22.122Z,6.50
2023-04-24T08:02:50.945Z,8.32
2023-04-24T08:05:19.398Z,6.00
2023-04-24T08:07:49.902Z,6.40
2023-04-24T08:10:18.456Z,9.90
2023-04-24T08:12:47.030Z,8.82
2023-04-24T08:15:15.342Z,10.73
2023-04-24T08:17:43.998Z,8.00
2023-04-24T08:20:15.659Z,9.10
2023-04-24T08:22:44.881Z,5.60
2023-04-24T08:25:13.187Z,9.25
2023-04-24T08:27:41.769Z,5.75
2023-04-24T08:30:10.169Z,5.07
2023-04-24T08:32:38.991Z,4.40
2023-04-24T08:35:10.283Z,4.65
2023-04-24T08:37:38.930Z,4.45
2023-04-24T08:40:15.193Z,4.43
2023-04-24T08:42:46.938Z,4.10
2023-04-24T08:45:15.351Z,4.97
2023-04-24T08:47:45.586Z,4.35
2023-04-24T08:50:14.223Z,4.03
2023-04-24T08:52:43.915Z,4.75
2023-04-24T08:55:12.114Z,3.60
2023-04-24T08:57:41.460Z,4.00
2023-04-24T09:00:11.961Z,4.30
2023-04-24T09:02:47.424Z,3.35
2023-04-24T09:07:47.126Z,4.03
2023-04-24T09:10:15.827Z,3.50
2023-04-24T09:12:45.300Z,3.47
2023-04-24T09:15:13.634Z,2.92
2023-04-24T09:17:42.651Z,3.63
2023-04-24T09:20:11.171Z,3.60
2023-04-24T09:22:39.891Z,3.90
2023-04-24T09:25:09.864Z,4.00
2023-04-24T09:27:38.440Z,4.65
2023-04-24T09:30:06.964Z,3.80
2023-04-24T09:32:35.745Z,3.70
2023-04-24T09:35:11.178Z,3.95
2023-04-24T09:37:40.793Z,2.83
2023-04-24T09:40:18.972Z,2.55
2023-04-24T09:42:58.952Z,2.60
2023-04-24T09:45:31.086Z,2.60
2023-04-24T09:48:00.044Z,3.05
2023-04-24T09:50:28.225Z,3.40
2023-04-24T09:53:11.778Z,2.65
2023-04-24T09:55:47.292Z,3.40
2023-04-24T09:58:15.884Z,2.67
2023-04-24T10:00:44.178Z,4.22
2023-04-24T10:03:12.987Z,2.90
2023-04-24T10:05:42.394Z,2.83
2023-04-24T10:08:15.009Z,2.97
2023-04-24T10:10:43.195Z,3.55
2023-04-24T10:13:12.780Z,3.60
2023-04-24T10:15:41.870Z,2.72
2023-04-24T10:18:11.110Z,4.10
2023-04-24T10:20:40.452Z,2.80
2023-04-24T10:23:09.140Z,2.92
2023-04-24T10:25:38.127Z,2.40
2023-04-24T10:28:09.011Z,2.58
2023-04-24T10:30:38.580Z,2.50
2023-04-24T10:33:08.411Z,2.33
2023-04-24T10:35:42.512Z,2.47
2023-04-24T10:38:13.096Z,4.45
2023-04-24T10:40:41.799Z,2.50
2023-04-24T10:43:14.077Z,2.08
2023-04-24T10:45:42.392Z,2.40
2023-04-24T10:48:15.223Z,3.67
2023-04-24T10:50:47.981Z,2.58
2023-04-24T10:53:19.747Z,3.00
2023-04-24T10:55:47.942Z,2.22
2023-04-24T10:58:17.955Z,2.30
2023-04-24T11:00:46.351Z,2.35
2023-04-24T11:03:25.851Z,2.40
2023-04-24T11:05:55.609Z,3.95
2023-04-24T11:08:24.166Z,2.60
2023-04-24T11:10:58.473Z,2.70
2023-04-24T11:13:28.016Z,2.40
2023-04-24T11:16:15.325Z,2.45
2023-04-24T11:18:51.743Z,2.10
2023-04-24T11:21:20.551Z,2.95
2023-04-24T11:23:49.388Z,2.55
2023-04-24T11:26:24.208Z,2.38
2023-04-24T11:28:52.764Z,3.67
2023-04-24T11:31:39.208Z,3.35
2023-04-24T11:34:09.431Z,2.65
2023-04-24T11:36:37.813Z,5.30
2023-04-24T11:39:07.300Z,2.47
2023-04-24T11:41:36.421Z,5.22
2023-04-24T11:44:05.483Z,4.80
2023-04-24T11:46:33.933Z,3.78
2023-04-24T11:49:02.909Z,5.15
2023-04-24T11:51:40.262Z,3.50
2023-04-24T11:54:17.046Z,3.65
2023-04-24T11:56:49.262Z,3.10
2023-04-24T11:59:17.821Z,3.55
2023-04-24T12:01:50.084Z,3.35
2023-04-24T12:04:20.587Z,2.72
2023-04-24T12:07:15.253Z,2.97
2023-04-24T12:09:44.175Z,2.45
2023-04-24T12:12:13.408Z,4.15
2023-04-24T12:14:45.795Z,4.20
2023-04-24T12:17:14.009Z,3.58
2023-04-24T12:19:47.563Z,3.90
2023-04-24T12:22:16.032Z,3.40
2023-04-24T12:25:01.718Z,3.03
2023-04-24T12:27:36.177Z,2.80
2023-04-24T12:30:06.370Z,3.20
2023-04-24T12:32:34.746Z,2.72
2023-04-24T12:35:07.257Z,3.60
2023-04-24T12:37:37.471Z,3.28
2023-04-24T12:40:12.624Z,3.80
2023-04-24T12:42:44.901Z,3.93
2023-04-24T12:45:14.136Z,2.90
2023-04-24T12:47:42.951Z,3.22
2023-04-24T12:50:12.978Z,3.78
2023-04-24T12:52:42.732Z,3.25
2023-04-24T12:55:13.545Z,3.30
2023-04-24T12:57:44.498Z,3.20
2023-04-24T13:00:14.954Z,3.80
2023-04-24T13:02:43.257Z,3.42
2023-04-24T13:05:12.845Z,3.40
2023-04-24T13:07:41.357Z,3.85
2023-04-24T13:10:09.957Z,4.45
2023-04-24T13:12:38.658Z,4.13
2023-04-24T13:15:08.011Z,4.40
2023-04-24T13:17:36.394Z,4.00
2023-04-24T13:20:05.176Z,2.90
2023-04-24T13:22:33.430Z,3.75
2023-04-24T13:25:02.255Z,2.95
2023-04-24T13:27:30.464Z,3.50
2023-04-24T13:29:58.758Z,5.03
2023-04-24T13:32:27.304Z,3.20
2023-04-24T13:34:56.112Z,3.45
2023-04-24T13:37:25.801Z,3.50
2023-04-24T13:39:54.729Z,3.75
2023-04-24T13:42:22.850Z,4.38
2023-04-24T13:44:52.326Z,5.35
2023-04-24T13:47:20.433Z,3.97
2023-04-24T13:49:48.764Z,4.00
2023-04-24T13:52:17.212Z,5.35
2023-04-24T13:54:45.742Z,3.13
2023-04-24T13:57:14.005Z,3.90
2023-04-24T13:59:42.630Z,4.47
2023-04-24T14:02:10.893Z,3.15
2023-04-24T14:04:39.893Z,3.35
2023-04-24T14:07:09.551Z,3.28
2023-04-24T14:09:38.151Z,4.05
2023-04-24T14:12:06.821Z,3.00
2023-04-24T14:14:35.840Z,3.90
2023-04-24T14:17:04.279Z,6.15
2023-04-24T14:19:33.080Z,3.45
2023-04-24T14:22:02.052Z,3.15
2023-04-24T14:24:31.685Z,3.40
2023-04-24T14:27:01.292Z,3.80
2023-04-24T14:29:29.753Z,3.53
2023-04-24T14:31:58.167Z,4.28
2023-04-24T14:34:26.742Z,4.80
2023-04-24T14:36:55.864Z,3.90
2023-04-24T14:39:24.356Z,3.78
2023-04-24T14:41:52.666Z,3.72
2023-04-24T14:44:21.099Z,4.20
2023-04-24T14:46:50.564Z,5.18
2023-04-24T14:49:19.153Z,3.78
2023-04-24T14:51:47.409Z,3.90
2023-04-24T14:54:15.963Z,4.75
2023-04-24T14:56:45.378Z,3.85
2023-04-24T14:59:14.290Z,3.92
2023-04-24T15:01:42.558Z,3.45
2023-04-24T15:04:11.228Z,3.55
2023-04-24T15:06:39.583Z,4.30
2023-04-24T15:09:08.370Z,4.53
2023-04-24T15:11:36.640Z,3.75
2023-04-24T15:14:05.290Z,4.43
2023-04-24T15:16:33.579Z,4.07
2023-04-24T15:19:02.744Z,4.18
2023-04-24T15:21:31.772Z,4.70
2023-04-24T15:24:00.464Z,7.75
2023-04-24T15:26:28.680Z,10.52
2023-04-24T15:28:57.122Z,14.18
2023-04-24T15:31:25.251Z,7.18
2023-04-24T15:33:54.954Z,14.95
2023-04-24T15:36:23.580Z,6.60
2023-04-24T15:38:52.108Z,22.02
2023-04-24T15:41:20.358Z,9.63
2023-04-24T15:43:49.093Z,5.35
2023-04-24T15:46:17.378Z,5.03
2023-04-24T15:48:46.219Z,6.18
2023-04-24T15:51:14.443Z,6.72
2023-04-24T15:53:43.593Z,8.35
2023-04-24T15:56:11.921Z,7.10
2023-04-24T15:58:41.658Z,7.22
2023-04-24T16:01:10.317Z,9.85
2023-04-24T16:03:40.818Z,9.38
2023-04-24T16:06:09.151Z,6.45
2023-04-24T16:08:38.608Z,13.32
2023-04-24T16:11:06.846Z,15.43
2023-04-24T16:13:35.552Z,22.27
2023-04-24T16:16:06.651Z,14.13
2023-04-24T16:18:34.806Z,16.85
2023-04-24T16:21:03.098Z,16.80
2023-04-24T16:23:33.063Z,14.10
2023-04-24T16:26:01.459Z,17.55
2023-04-24T16:28:31.353Z,12.50
2023-04-24T16:30:59.248Z,13.02
2023-04-24T16:33:29.959Z,19.98
2023-04-24T16:35:58.408Z,42.80
2023-04-24T16:38:28.421Z,14.95
2023-04-24T16:40:56.366Z,12.93
2023-04-24T16:43:24.619Z,16.55
2023-04-24T16:45:52.991Z,46.22
2023-04-24T16:48:22.405Z,32.83
2023-04-24T16:50:50.382Z,69.70
2023-04-24T16:53:19.582Z,48.88
2023-04-24T16:55:49.141Z,29.48
2023-04-24T16:58:19.112Z,25.15
2023-04-24T17:00:48.930Z,21.38
2023-04-24T17:03:17.248Z,17.92
2023-04-24T17:05:45.581Z,20.98
2023-04-24T17:08:14.352Z,40.78
2023-04-24T17:10:42.409Z,25.83
2023-04-24T17:13:11.333Z,65.30
2023-04-24T17:15:40.469Z,114.50
2023-04-24T17:18:09.180Z,26.05
2023-04-24T17:20:37.187Z,21.67
2023-04-24T17:23:05.539Z,18.10
2023-04-24T17:25:33.715Z,17.13
2023-04-24T17:28:02.100Z,15.18
2023-04-24T17:30:30.504Z,25.17
2023-04-24T17:32:58.811Z,56.88
2023-04-24T17:35:27.907Z,32.35
2023-04-24T17:37:57.063Z,47.67
2023-04-24T17:40:25.530Z,18.35
2023-04-24T17:42:54.714Z,14.98
2023-04-24T17:45:22.873Z,27.13
2023-04-24T17:47:51.878Z,23.77
2023-04-24T17:50:20.178Z,23.38
2023-04-24T17:52:48.595Z,21.98
2023-04-24T17:55:17.173Z,18.95
2023-04-24T17:57:45.908Z,20.77
2023-04-24T18:00:14.393Z,17.73
2023-04-24T18:02:44.316Z,18.58
2023-04-24T18:05:12.422Z,17.05
2023-04-24T18:07:41.124Z,15.57
2023-04-24T18:10:10.044Z,15.88
2023-04-24T18:12:44.420Z,16.55
2023-04-24T18:15:14.768Z,17.40
2023-04-24T18:17:43.980Z,16.65
2023-04-24T18:20:14.535Z,18.05
2023-04-24T18:22:43.610Z,15.68
2023-04-24T18:25:12.077Z,23.15
2023-04-24T18:27:41.499Z,13.80
2023-04-24T18:30:14.207Z,12.50
2023-04-24T18:32:43.201Z,10.65
2023-04-24T18:35:11.412Z,9.98
2023-04-24T18:37:40.675Z,9.38
2023-04-24T18:40:09.865Z,9.82
2023-04-24T18:42:38.609Z,8.70
2023-04-24T18:45:07.187Z,7.68
2023-04-24T18:47:35.929Z,7.68
2023-04-24T18:50:05.425Z,7.20
2023-04-24T18:52:34.910Z,7.20
2023-04-24T18:55:04.066Z,11.57
2023-04-24T18:57:33.142Z,11.65
2023-04-24T19:00:01.335Z,14.70
2023-04-24T19:02:30.141Z,11.82
2023-04-24T19:04:58.225Z,9.65
2023-04-24T19:07:26.526Z,9.63
2023-04-24T19:09:54.620Z,8.90
2023-04-24T19:12:23.234Z,9.48
2023-04-24T19:14:51.916Z,9.52
2023-04-24T19:17:24.482Z,8.85
2023-04-24T19:19:52.474Z,8.85
2023-04-24T19:22:21.036Z,7.93
2023-04-24T19:24:49.171Z,8.63
2023-04-24T19:27:17.558Z,8.45
2023-04-24T19:29:46.165Z,8.75
2023-04-24T19:32:14.864Z,9.13
2023-04-24T19:34:43.026Z,8.93
2023-04-24T19:37:11.535Z,8.90
2023-04-24T19:39:39.552Z,8.70
2023-04-24T19:42:07.888Z,8.65
2023-04-24T19:44:35.963Z,9.20
2023-04-24T19:47:04.593Z,9.82
2023-04-24T19:49:32.551Z,9.95
2023-04-24T19:52:00.894Z,10.50
2023-04-24T19:54:29.486Z,10.05
2023-04-24T19:56:58.273Z,9.80
2023-04-24T19:59:26.189Z,9.90
2023-04-24T20:01:55.237Z,10.43
2023-04-24T20:04:23.587Z,10.02
2023-04-24T20:06:52.024Z,10.32
2023-04-24T20:09:20.038Z,9.50
2023-04-24T20:11:51.328Z,10.20
2023-04-24T20:14:19.534Z,10.40
2023-04-24T20:16:47.759Z,11.43
2023-04-24T20:19:15.912Z,11.07
2023-04-24T20:21:44.293Z,10.35
2023-04-24T20:24:12.377Z,11.20
2023-04-24T20:26:41.102Z,10.48
2023-04-24T20:29:09.019Z,10.95
2023-04-24T20:31:37.702Z,10.80
2023-04-24T20:34:06.387Z,11.35
2023-04-24T20:36:35.241Z,9.95
2023-04-24T20:39:05.046Z,22.33
2023-04-24T20:41:34.195Z,35.58
2023-04-24T20:44:04.136Z,35.47
2023-04-24T20:46:32.919Z,34.22
2023-04-24T20:49:00.945Z,26.50
2023-04-24T20:51:29.976Z,17.83
2023-04-24T20:53:57.954Z,14.27
2023-04-24T20:56:26.362Z,15.13
2023-04-24T20:58:56.790Z,18.88
2023-04-24T21:01:25.668Z,14.07
2023-04-24T21:03:54.046Z,18.95
2023-04-24T21:06:22.705Z,9.70
2023-04-24T21:08:50.717Z,9.95
2023-04-24T21:11:19.158Z,11.65
2023-04-24T21:13:47.216Z,14.80
2023-04-24T21:16:15.809Z,14.75
2023-04-24T21:18:43.813Z,16.90
2023-04-24T21:21:12.336Z,16.17
2023-04-24T21:23:40.388Z,20.80
2023-04-24T21:26:08.593Z,21.15
2023-04-24T21:28:36.934Z,17.75
2023-04-24T21:31:05.329Z,21.50
2023-04-24T21:33:33.610Z,17.38
2023-04-24T21:36:01.931Z,15.02
2023-04-24T21:38:29.965Z,15.95
2023-04-24T21:40:58.205Z,13.50
2023-04-24T21:43:37.275Z,25.15
2023-04-24T21:46:12.208Z,25.23
2023-04-24T21:48:40.156Z,15.07
2023-04-24T21:51:08.403Z,14.18
2023-04-24T21:53:36.757Z,15.50
2023-04-24T21:56:05.309Z,14.18
2023-04-24T21:58:34.214Z,12.23
2023-04-24T22:01:02.735Z,14.32
2023-04-24T22:03:30.969Z,12.82
2023-04-24T22:05:59.419Z,11.95
2023-04-24T22:08:27.350Z,13.60
2023-04-24T22:10:55.659Z,14.48
2023-04-24T22:13:23.614Z,16.92
2023-04-24T22:15:52.027Z,15.60
2023-04-24T22:18:20.152Z,17.35
2023-04-24T22:20:48.641Z,12.90
2023-04-24T22:23:16.621Z,13.07
2023-04-24T22:25:45.142Z,13.55
2023-04-24T22:28:13.178Z,14.25
2023-04-24T22:30:41.369Z,14.80
2023-04-24T22:33:10.061Z,12.90
2023-04-24T22:35:38.192Z,11.98
2023-04-24T22:38:06.243Z,10.90
2023-04-24T22:40:35.166Z,10.57
2023-04-24T22:43:03.827Z,11.10
2023-04-24T22:45:32.298Z,11.23
2023-04-24T22:48:00.444Z,11.43
2023-04-24T22:50:29.278Z,11.07
2023-04-24T22:52:57.339Z,12.15
2023-04-24T22:55:25.672Z,12.90
2023-04-24T22:57:54.103Z,13.82
2023-04-24T23:00:22.361Z,12.80
2023-04-24T23:02:50.728Z,12.35
2023-04-24T23:05:21.484Z,13.10
2023-04-24T23:07:49.474Z,13.93
2023-04-24T23:10:17.977Z,16.17
2023-04-24T23:12:45.947Z,14.80
2023-04-24T23:15:14.037Z,15.18
2023-04-24T23:17:42.034Z,14.73
2023-04-24T23:20:14.215Z,14.57
2023-04-24T23:22:42.399Z,13.35
2023-04-24T23:25:11.096Z,13.13
2023-04-24T23:27:39.358Z,12.35
2023-04-24T23:30:08.414Z,12.82
2023-04-24T23:32:36.387Z,12.82
2023-04-24T23:35:05.033Z,14.50
2023-04-24T23:37:32.931Z,13.90
2023-04-24T23:40:01.205Z,13.73
2023-04-24T23:42:29.277Z,13.27
2023-04-24T23:44:57.582Z,12.93
2023-04-24T23:47:25.476Z,13.45
2023-04-24T23:49:53.850Z,12.40
2023-04-24T23:52:22.099Z,12.88
2023-04-24T23:54:50.485Z,11.95
2023-04-24T23:57:19.308Z,14.43
2023-04-24T23:59:47.626Z,13.55
